createdAt,value
2019-01-17T00:01:44.442Z,4.87
2019-01-17T00:04:40.754Z,5.17
2019-01-17T00:07:28.899Z,5.63
2019-01-17T00:10:40.505Z,4.57
2019-01-17T00:13:32.021Z,5.17
2019-01-17T00:16:19.347Z,5.10
2019-01-17T00:24:10.785Z,5.53
2019-01-17T00:26:49.312Z,5.60
2019-01-17T00:31:25.381Z,5.60
2019-01-17T00:33:54.337Z,5.80
2019-01-17T00:35:58.120Z,5.13
2019-01-17T00:39:11.432Z,5.70
2019-01-17T00:42:09.422Z,5.07
2019-01-17T00:48:20.057Z,5.53
2019-01-17T00:51:40.662Z,5.77
2019-01-17T00:54:52.546Z,5.67
2019-01-17T00:57:51.164Z,5.30
2019-01-17T01:00:34.562Z,4.87
2019-01-17T01:03:42.107Z,5.10
2019-01-17T01:08:09.759Z,5.70
2019-01-17T01:09:32.043Z,4.80
2019-01-17T01:12:35.262Z,4.87
2019-01-17T01:15:55.980Z,5.87
2019-01-17T01:19:00.321Z,5.60
2019-01-17T01:21:48.666Z,5.57
2019-01-17T01:24:38.745Z,5.57
2019-01-17T01:27:28.441Z,5.37
2019-01-17T01:31:46.080Z,5.30
2019-01-17T01:33:48.853Z,4.90
2019-01-17T01:36:37.460Z,5.03
2019-01-17T01:40:02.466Z,5.17
2019-01-17T01:42:59.843Z,5.13
2019-01-17T01:45:57.571Z,5.67
2019-01-17T01:49:17.038Z,5.07
2019-01-17T01:52:03.165Z,5.50
2019-01-17T01:54:44.489Z,5.77
2019-01-17T01:57:29.286Z,5.00
2019-01-17T02:00:03.112Z,5.00
2019-01-17T02:02:41.525Z,5.00
2019-01-17T02:05:20.016Z,5.80
2019-01-17T02:07:52.229Z,5.13
2019-01-17T02:10:26.736Z,5.47
2019-01-17T02:12:57.763Z,5.47
2019-01-17T02:15:31.471Z,5.07
2019-01-17T02:18:20.553Z,5.70
2019-01-17T02:20:48.624Z,6.40
2019-01-17T02:23:23.450Z,6.07
2019-01-17T02:25:55.489Z,5.67
2019-01-17T02:28:31.054Z,5.67
2019-01-17T02:31:10.262Z,5.60
2019-01-17T02:33:49.390Z,6.40
2019-01-17T02:36:20.734Z,5.87
2019-01-17T02:38:52.315Z,5.57
2019-01-17T02:41:24.930Z,6.40
2019-01-17T02:43:59.225Z,6.30
2019-01-17T02:46:32.294Z,5.93
2019-01-17T02:49:07.544Z,6.13
2019-01-17T02:51:40.848Z,5.87
2019-01-17T02:54:12.784Z,6.20
2019-01-17T02:57:00.648Z,6.40
2019-01-17T02:59:45.328Z,6.10
2019-01-17T03:02:20.042Z,6.67
2019-01-17T03:05:03.321Z,6.77
2019-01-17T03:07:41.026Z,6.47
2019-01-17T03:10:19.193Z,7.50
2019-01-17T03:12:56.012Z,6.53
2019-01-17T03:15:28.095Z,5.90
2019-01-17T03:18:02.114Z,6.97
2019-01-17T03:20:40.988Z,6.77
2019-01-17T03:23:16.616Z,6.37
2019-01-17T03:25:54.466Z,6.73
2019-01-17T03:28:29.025Z,7.13
2019-01-17T03:30:59.866Z,6.73
2019-01-17T03:33:53.729Z,7.57
2019-01-17T03:36:26.196Z,7.90
2019-01-17T03:39:10.638Z,6.57
2019-01-17T03:41:43.122Z,8.20
2019-01-17T03:44:14.770Z,6.73
2019-01-17T03:46:46.958Z,7.10
2019-01-17T03:49:22.816Z,7.60
2019-01-17T03:51:53.638Z,7.23
2019-01-17T03:54:24.610Z,6.87
2019-01-17T03:56:57.780Z,6.87
2019-01-17T03:59:28.693Z,7.40
2019-01-17T04:02:01.996Z,6.90
2019-01-17T04:04:32.922Z,7.10
2019-01-17T04:07:03.716Z,7.13
2019-01-17T04:09:37.806Z,6.93
2019-01-17T04:12:13.147Z,6.97
2019-01-17T04:14:45.816Z,6.17
2019-01-17T04:17:23.639Z,6.20
2019-01-17T04:19:54.474Z,6.43
2019-01-17T04:22:25.313Z,6.87
2019-01-17T04:24:57.478Z,6.77
2019-01-17T04:27:29.008Z,6.67
2019-01-17T04:30:16.551Z,6.97
2019-01-17T04:32:48.669Z,6.10
2019-01-17T04:35:22.913Z,6.23
2019-01-17T04:37:58.767Z,6.60
2019-01-17T04:40:31.459Z,6.43
2019-01-17T04:43:03.300Z,6.23
2019-01-17T04:45:40.563Z,6.17
2019-01-17T04:48:16.773Z,5.80
2019-01-17T04:50:50.279Z,5.40
2019-01-17T04:53:25.112Z,6.07
2019-01-17T04:55:59.402Z,6.20
2019-01-17T04:58:33.377Z,5.40
2019-01-17T05:01:04.417Z,5.37
2019-01-17T05:03:36.759Z,6.20
2019-01-17T05:06:12.943Z,5.83
2019-01-17T05:08:45.423Z,5.70
2019-01-17T05:11:17.016Z,5.50
2019-01-17T05:13:49.039Z,6.40
2019-01-17T05:16:20.280Z,5.47
2019-01-17T05:18:53.962Z,5.57
2019-01-17T05:21:28.410Z,5.40
2019-01-17T05:24:00.407Z,5.20
2019-01-17T05:26:32.659Z,4.97
2019-01-17T05:29:05.319Z,4.90
2019-01-17T05:31:38.605Z,5.40
2019-01-17T05:34:09.546Z,5.23
2019-01-17T05:36:42.745Z,5.63
2019-01-17T05:39:19.919Z,5.10
2019-01-17T05:41:55.567Z,5.43
2019-01-17T05:44:23.853Z,5.00
2019-01-17T05:47:02.975Z,4.63
2019-01-17T05:49:34.991Z,4.60
2019-01-17T05:52:21.933Z,4.83
2019-01-17T05:54:57.272Z,4.70
2019-01-17T05:57:31.874Z,4.80
2019-01-17T06:00:12.638Z,4.70
2019-01-17T06:02:43.688Z,5.07
2019-01-17T06:05:35.762Z,4.20
2019-01-17T06:08:06.368Z,4.30
2019-01-17T06:10:38.994Z,3.90
2019-01-17T06:13:12.083Z,4.30
2019-01-17T06:15:47.476Z,4.20
2019-01-17T06:18:27.023Z,4.43
2019-01-17T06:20:56.361Z,4.00
2019-01-17T06:23:28.826Z,4.20
2019-01-17T06:26:06.577Z,4.10
2019-01-17T06:28:37.660Z,3.77
2019-01-17T06:31:11.297Z,3.90
2019-01-17T06:33:43.904Z,4.13
2019-01-17T06:36:21.657Z,3.70
2019-01-17T06:38:54.386Z,3.70
2019-01-17T06:41:29.329Z,3.90
2019-01-17T06:44:10.326Z,3.47
2019-01-17T06:46:41.601Z,3.77
2019-01-17T06:49:14.184Z,3.77
2019-01-17T06:51:46.965Z,3.50
2019-01-17T06:54:18.948Z,3.30
2019-01-17T06:56:56.623Z,3.40
2019-01-17T06:59:38.087Z,3.37
2019-01-17T07:02:21.674Z,3.20
2019-01-17T07:04:57.290Z,4.23
2019-01-17T07:07:28.111Z,3.43
2019-01-17T07:10:03.670Z,3.07
2019-01-17T07:12:42.175Z,3.20
2019-01-17T07:15:15.298Z,3.30
2019-01-17T07:17:56.154Z,3.13
2019-01-17T07:20:32.337Z,2.83
2019-01-17T07:23:04.403Z,2.83
2019-01-17T07:25:41.036Z,3.00
2019-01-17T07:28:13.356Z,2.90
2019-01-17T07:30:55.249Z,3.33
2019-01-17T07:33:47.569Z,2.87
2019-01-17T07:36:14.942Z,3.10
2019-01-17T07:38:50.385Z,3.43
2019-01-17T07:41:30.173Z,3.03
2019-01-17T07:44:12.025Z,3.00
2019-01-17T07:46:49.726Z,2.43
2019-01-17T07:49:27.558Z,3.00
2019-01-17T07:52:20.617Z,2.87
2019-01-17T07:55:03.631Z,3.63
2019-01-17T07:57:40.532Z,2.57
2019-01-17T08:00:17.769Z,2.90
2019-01-17T08:02:48.895Z,2.87
2019-01-17T08:05:24.967Z,2.40
2019-01-17T08:08:13.969Z,2.60
2019-01-17T08:10:37.993Z,2.50
2019-01-17T08:13:10.722Z,2.80
2019-01-17T08:15:47.603Z,2.50
2019-01-17T08:18:42.114Z,2.40
2019-01-17T08:21:13.454Z,2.10
2019-01-17T08:23:52.501Z,2.30
2019-01-17T08:26:30.782Z,1.80
2019-01-17T08:29:09.970Z,2.20
2019-01-17T08:31:48.238Z,2.10
2019-01-17T08:34:19.677Z,2.03
2019-01-17T08:36:54.724Z,2.23
2019-01-17T08:39:33.033Z,1.90
2019-01-17T08:42:04.708Z,2.23
2019-01-17T08:44:46.784Z,2.00
2019-01-17T08:47:23.582Z,1.70
2019-01-17T08:50:09.159Z,1.73
2019-01-17T08:52:52.691Z,1.93
2019-01-17T08:55:39.204Z,1.90
2019-01-17T08:58:15.031Z,2.00
2019-01-17T09:01:19.795Z,1.77
2019-01-17T09:03:50.958Z,1.80
2019-01-17T09:06:29.441Z,1.73
2019-01-17T09:09:03.179Z,2.37
2019-01-17T09:12:02.651Z,1.77
2019-01-17T09:15:40.872Z,2.07
2019-01-17T09:22:27.209Z,2.03
2019-01-17T09:25:27.635Z,1.83
2019-01-17T09:28:28.779Z,1.60
2019-01-17T09:31:09.756Z,1.90
2019-01-17T09:33:46.413Z,1.90
2019-01-17T09:36:35.483Z,2.10
2019-01-17T09:39:25.187Z,1.90
2019-01-17T09:43:13.102Z,1.97
2019-01-17T09:46:01.824Z,1.77
2019-01-17T09:48:49.554Z,2.10
2019-01-17T09:51:35.787Z,2.17
2019-01-17T09:54:58.442Z,2.00
2019-01-17T09:57:41.475Z,2.70
2019-01-17T10:04:54.861Z,2.10
2019-01-17T10:10:41.122Z,1.80
2019-01-17T10:14:42.102Z,2.00
2019-01-17T10:19:23.680Z,1.90
2019-01-17T10:31:35.325Z,1.90
2019-01-17T10:35:37.501Z,2.10
2019-01-17T10:43:55.530Z,1.80
2019-01-17T10:52:05.263Z,2.00
2019-01-17T10:56:13.907Z,1.80
2019-01-17T11:04:33.605Z,2.00
2019-01-17T11:07:37.144Z,1.63
2019-01-17T11:14:48.636Z,1.90
2019-01-17T11:18:20.159Z,1.40
2019-01-17T11:22:04.294Z,2.37
2019-01-17T11:25:49.594Z,1.73
2019-01-17T11:29:43.681Z,1.90
2019-01-17T11:33:12.205Z,1.60
2019-01-17T11:40:48.376Z,1.57
2019-01-17T12:00:31.746Z,1.63
2019-01-17T12:07:42.611Z,1.57
2019-01-17T12:14:30.423Z,1.20
2019-01-17T12:27:13.940Z,2.50
2019-01-17T12:30:26.036Z,1.43
2019-01-17T12:34:18.489Z,1.40
2019-01-17T12:36:58.118Z,1.30
2019-01-17T12:39:28.327Z,1.63
2019-01-17T12:42:18.176Z,1.70
2019-01-17T12:44:58.844Z,1.40
2019-01-17T12:47:31.923Z,1.67
2019-01-17T12:50:19.452Z,1.40
2019-01-17T12:53:33.692Z,1.07
2019-01-17T12:56:57.428Z,1.33
2019-01-17T12:59:24.340Z,1.10
2019-01-17T13:05:22.019Z,1.10
2019-01-17T13:07:58.948Z,1.30
2019-01-17T13:10:31.571Z,1.47
2019-01-17T13:13:10.195Z,1.10
2019-01-17T13:15:47.408Z,1.00
2019-01-17T13:18:20.810Z,1.30
2019-01-17T13:20:58.532Z,1.40
2019-01-17T13:24:13.303Z,1.50
2019-01-17T13:26:47.461Z,1.40
2019-01-17T13:29:28.839Z,1.40
2019-01-17T13:32:22.874Z,1.10
2019-01-17T13:34:58.676Z,1.13
2019-01-17T13:37:40.894Z,1.40
2019-01-17T13:40:20.366Z,1.30
2019-01-17T13:43:01.276Z,1.13
2019-01-17T13:45:38.070Z,1.43
2019-01-17T13:48:16.656Z,1.40
2019-01-17T13:51:03.694Z,1.80
2019-01-17T13:53:40.937Z,1.40
2019-01-17T13:56:22.422Z,1.93
2019-01-17T13:59:58.328Z,1.70
2019-01-17T14:02:21.720Z,2.10
2019-01-17T14:09:49.496Z,1.57
2019-01-17T14:13:25.971Z,1.80
2019-01-17T14:16:03.312Z,1.00
2019-01-17T14:18:38.598Z,1.40
2019-01-17T14:21:25.504Z,1.30
2019-01-17T14:27:49.853Z,1.37
2019-01-17T14:31:42.053Z,1.30
2019-01-17T14:33:29.967Z,1.27
2019-01-17T14:36:04.112Z,1.30
2019-01-17T14:38:36.590Z,1.63
2019-01-17T14:41:28.032Z,1.20
2019-01-17T14:44:18.789Z,1.30
2019-01-17T14:47:35.352Z,1.30
2019-01-17T14:51:03.783Z,1.20
2019-01-17T14:53:42.714Z,1.20
2019-01-17T14:56:29.228Z,1.00
2019-01-17T14:59:13.717Z,1.40
2019-01-17T15:02:26.240Z,1.40
2019-01-17T15:05:05.153Z,2.60
2019-01-17T15:07:45.671Z,1.50
2019-01-17T15:10:35.695Z,1.77
2019-01-17T15:13:44.224Z,1.50
2019-01-17T15:16:16.129Z,1.47
2019-01-17T15:18:54.190Z,2.10
2019-01-17T15:21:48.464Z,1.40
2019-01-17T15:24:23.075Z,1.30
2019-01-17T15:27:11.749Z,1.50
2019-01-17T15:29:54.509Z,1.60
2019-01-17T15:32:35.480Z,2.60
2019-01-17T15:35:16.002Z,2.77
2019-01-17T15:38:06.064Z,1.27
2019-01-17T15:40:39.079Z,1.50
2019-01-17T15:43:19.032Z,2.57
2019-01-17T15:46:04.652Z,1.80
2019-01-17T15:48:35.719Z,1.60
2019-01-17T15:51:46.585Z,1.23
2019-01-17T15:54:08.576Z,1.30
2019-01-17T15:56:41.259Z,1.60
2019-01-17T15:59:23.283Z,1.30
2019-01-17T16:01:56.621Z,3.70
2019-01-17T16:04:35.406Z,3.23
2019-01-17T16:07:13.920Z,2.23
2019-01-17T16:09:45.099Z,2.07
2019-01-17T16:12:17.127Z,1.90
2019-01-17T16:14:51.412Z,7.67
2019-01-17T16:17:39.241Z,11.40
2019-01-17T16:20:07.819Z,3.63
2019-01-17T16:26:42.335Z,2.00
2019-01-17T16:29:31.504Z,2.00
2019-01-17T16:32:09.706Z,2.07
2019-01-17T16:34:48.163Z,2.30
2019-01-17T16:39:58.087Z,1.57
2019-01-17T16:48:45.652Z,2.30
2019-01-17T16:51:16.590Z,2.00
2019-01-17T16:53:56.043Z,1.73
2019-01-17T16:56:27.693Z,3.53
2019-01-17T16:59:03.585Z,2.97
2019-01-17T17:01:37.031Z,9.20
2019-01-17T17:04:13.115Z,2.10
2019-01-17T17:06:45.680Z,3.07
2019-01-17T17:09:24.300Z,1.87
2019-01-17T17:11:55.335Z,1.57
2019-01-17T17:16:59.562Z,1.40
2019-01-17T17:19:33.171Z,1.20
2019-01-17T17:22:12.430Z,1.10
2019-01-17T17:24:46.336Z,1.23
2019-01-17T17:27:17.078Z,1.40
2019-01-17T17:29:50.023Z,1.40
2019-01-17T17:32:26.996Z,1.27
2019-01-17T17:35:06.413Z,1.37
2019-01-17T17:37:57.806Z,1.30
2019-01-17T17:40:32.996Z,1.33
2019-01-17T17:43:11.832Z,1.67
2019-01-17T17:48:49.350Z,1.70
2019-01-17T17:51:35.733Z,1.60
2019-01-17T17:54:12.194Z,2.30
2019-01-17T17:56:54.336Z,1.87
2019-01-17T17:59:33.555Z,1.80
2019-01-17T18:02:20.054Z,1.90
2019-01-17T18:04:52.596Z,1.80
2019-01-17T18:07:33.506Z,1.80
2019-01-17T18:10:22.804Z,1.90
2019-01-17T18:12:59.651Z,1.73
2019-01-17T18:15:43.721Z,1.50
2019-01-17T18:18:20.695Z,1.80
2019-01-17T18:21:14.453Z,1.87
2019-01-17T18:23:58.686Z,1.60
2019-01-17T18:26:33.564Z,1.90
2019-01-17T18:29:23.384Z,1.80
2019-01-17T18:31:56.943Z,1.90
2019-01-17T18:34:33.795Z,1.97
2019-01-17T18:37:09.770Z,1.80
2019-01-17T18:40:05.635Z,2.20
2019-01-17T18:42:29.753Z,1.93
2019-01-17T18:45:01.372Z,2.00
2019-01-17T18:47:42.042Z,2.00
2019-01-17T18:50:20.373Z,2.20
2019-01-17T18:54:30.809Z,2.37
2019-01-17T18:55:30.433Z,2.27
2019-01-17T18:58:04.027Z,2.60
2019-01-17T19:00:49.250Z,3.13
2019-01-17T19:03:26.049Z,2.47
2019-01-17T19:06:24.775Z,2.97
2019-01-17T19:09:10.250Z,2.50
2019-01-17T19:11:43.531Z,2.90
2019-01-17T19:14:17.530Z,3.20
2019-01-17T19:16:59.223Z,2.77
2019-01-17T19:19:57.963Z,2.80
2019-01-17T19:22:42.597Z,3.27
2019-01-17T19:25:37.393Z,3.20
2019-01-17T19:28:22.046Z,3.03
2019-01-17T19:30:53.171Z,2.70
2019-01-17T19:33:35.287Z,3.03
2019-01-17T19:36:33.751Z,2.97
2019-01-17T19:38:52.520Z,2.73
2019-01-17T19:41:30.013Z,2.90
2019-01-17T19:44:11.726Z,3.07
2019-01-17T19:46:51.633Z,3.60
2019-01-17T19:49:22.542Z,3.13
2019-01-17T19:51:54.861Z,3.67
2019-01-17T19:54:34.698Z,3.20
2019-01-17T19:57:07.901Z,2.90
2019-01-17T19:59:43.243Z,2.87
2019-01-17T20:02:14.223Z,3.27
2019-01-17T20:05:04.193Z,2.97
2019-01-17T20:07:36.338Z,3.13
2019-01-17T20:10:12.382Z,3.50
2019-01-17T20:12:43.619Z,3.57
2019-01-17T20:15:24.293Z,4.00
2019-01-17T20:17:57.878Z,3.63
2019-01-17T20:20:37.415Z,3.73
2019-01-17T20:23:07.884Z,3.93
2019-01-17T20:25:38.720Z,3.40
2019-01-17T20:28:09.442Z,3.90
2019-01-17T20:30:43.350Z,3.83
2019-01-17T20:33:16.428Z,3.67
2019-01-17T20:35:57.895Z,3.80
2019-01-17T20:38:27.914Z,3.27
2019-01-17T20:40:58.773Z,3.40
2019-01-17T20:43:29.828Z,3.23
2019-01-17T20:46:02.363Z,2.97
2019-01-17T20:48:44.671Z,2.43
2019-01-17T20:51:18.395Z,3.13
2019-01-17T20:53:54.455Z,3.23
2019-01-17T20:56:27.115Z,2.93
2019-01-17T20:59:02.902Z,3.50
2019-01-17T21:02:06.535Z,3.00
2019-01-17T21:04:37.329Z,3.30
2019-01-17T21:07:09.822Z,3.70
2019-01-17T21:09:45.741Z,3.20
2019-01-17T21:12:16.570Z,3.37
2019-01-17T21:14:47.325Z,3.33
2019-01-17T21:17:18.205Z,3.13
2019-01-17T21:19:55.738Z,2.80
2019-01-17T21:22:26.367Z,2.47
2019-01-17T21:24:57.566Z,2.40
2019-01-17T21:27:28.323Z,2.40
2019-01-17T21:30:03.096Z,1.97
2019-01-17T21:32:35.774Z,1.90
2019-01-17T21:35:17.349Z,1.77
2019-01-17T21:37:49.830Z,1.73
2019-01-17T21:40:25.072Z,1.50
2019-01-17T21:42:59.494Z,1.40
2019-01-17T21:45:32.397Z,1.60
2019-01-17T21:48:05.294Z,1.20
2019-01-17T21:50:37.109Z,1.40
2019-01-17T21:53:07.985Z,1.23
2019-01-17T21:55:38.886Z,1.37
2019-01-17T21:58:15.573Z,1.50
2019-01-17T22:00:47.535Z,1.60
2019-01-17T22:03:18.420Z,1.70
2019-01-17T22:05:50.234Z,1.30
2019-01-17T22:08:21.054Z,1.80
2019-01-17T22:10:52.085Z,1.70
2019-01-17T22:13:23.118Z,1.47
2019-01-17T22:15:53.870Z,1.70
2019-01-17T22:18:25.000Z,1.70
2019-01-17T22:20:55.639Z,1.47
2019-01-17T22:23:29.154Z,1.90
2019-01-17T22:26:06.024Z,1.90
2019-01-17T22:28:39.616Z,1.60
2019-01-17T22:31:12.506Z,1.80
2019-01-17T22:33:43.583Z,1.90
2019-01-17T22:36:15.723Z,1.77
2019-01-17T22:38:46.543Z,2.40
2019-01-17T22:41:17.346Z,2.63
2019-01-17T22:43:51.217Z,1.83
2019-01-17T22:46:34.010Z,1.80
2019-01-17T22:49:06.075Z,1.73
2019-01-17T22:51:37.325Z,1.90
2019-01-17T22:54:27.050Z,1.80
2019-01-17T22:58:35.893Z,1.90
2019-01-17T23:00:55.131Z,2.00
2019-01-17T23:03:59.115Z,1.93
2019-01-17T23:06:34.366Z,2.63
2019-01-17T23:09:15.165Z,2.30
2019-01-17T23:11:48.118Z,2.30
2019-01-17T23:14:24.291Z,2.00
2019-01-17T23:17:03.167Z,1.70
2019-01-17T23:19:38.678Z,2.00
2019-01-17T23:22:16.560Z,1.73
2019-01-17T23:24:48.621Z,2.07
2019-01-17T23:27:22.288Z,1.90
2019-01-17T23:29:56.614Z,2.53
2019-01-17T23:32:39.117Z,1.90
2019-01-17T23:35:11.599Z,2.57
2019-01-17T23:37:45.253Z,2.40
2019-01-17T23:40:20.017Z,1.83
2019-01-17T23:43:02.947Z,1.90
2019-01-17T23:45:38.671Z,2.13
2019-01-17T23:48:15.983Z,1.97
2019-01-17T23:54:23.765Z,2.03
2019-01-17T23:56:57.509Z,1.93
2019-01-17T23:59:28.619Z,2.77
